createdAt,value
2023-03-30T00:01:11.778Z,8.18
2023-03-30T00:03:39.420Z,8.18
2023-03-30T00:06:07.310Z,8.14
2023-03-30T00:08:33.885Z,8.14
2023-03-30T00:11:02.530Z,8.14
2023-03-30T00:13:29.989Z,8.23
2023-03-30T00:15:56.333Z,8.17
2023-03-30T00:18:22.600Z,8.21
2023-03-30T00:20:49.758Z,8.20
2023-03-30T00:23:16.472Z,8.23
2023-03-30T00:25:43.227Z,8.32
2023-03-30T00:28:09.526Z,8.25
2023-03-30T00:30:37.016Z,8.32
2023-03-30T00:33:03.937Z,8.37
2023-03-30T00:35:30.589Z,8.37
2023-03-30T00:38:01.454Z,8.29
2023-03-30T00:40:29.119Z,8.22
2023-03-30T00:43:00.656Z,8.19
2023-03-30T00:45:29.804Z,8.19
2023-03-30T00:47:58.818Z,8.18
2023-03-30T00:50:48.295Z,8.26
2023-03-30T00:53:24.953Z,8.32
2023-03-30T00:55:53.778Z,8.27
2023-03-30T00:58:22.397Z,8.21
2023-03-30T01:00:48.998Z,8.16
2023-03-30T01:03:30.416Z,8.16
2023-03-30T01:05:59.768Z,8.17
2023-03-30T01:08:32.215Z,8.22
2023-03-30T01:11:01.450Z,8.23
2023-03-30T01:13:30.245Z,8.23
2023-03-30T01:16:15.311Z,8.19
2023-03-30T01:18:54.956Z,8.17
2023-03-30T01:21:42.836Z,8.25
2023-03-30T01:24:53.199Z,8.21
2023-03-30T01:28:04.329Z,8.19
2023-03-30T01:30:55.732Z,8.23
2023-03-30T01:34:01.000Z,8.32
2023-03-30T01:36:59.683Z,8.34
2023-03-30T01:39:52.487Z,8.28
2023-03-30T01:42:48.563Z,8.30
2023-03-30T01:45:39.224Z,8.29
2023-03-30T01:48:14.233Z,8.30
2023-03-30T01:50:43.817Z,8.37
2023-03-30T01:53:15.185Z,8.33
2023-03-30T01:55:47.253Z,8.27
2023-03-30T01:58:23.362Z,8.35
2023-03-30T02:00:51.136Z,8.37
2023-03-30T02:03:22.897Z,8.35
2023-03-30T02:05:53.648Z,8.36
2023-03-30T02:08:25.901Z,8.37
2023-03-30T02:10:54.811Z,8.41
2023-03-30T02:13:23.216Z,8.42
2023-03-30T02:15:56.835Z,8.40
2023-03-30T02:18:23.332Z,8.44
2023-03-30T02:20:49.753Z,8.44
2023-03-30T02:23:22.296Z,8.39
2023-03-30T02:25:49.365Z,8.40
2023-03-30T02:28:16.561Z,8.36
2023-03-30T02:30:45.299Z,8.43
2023-03-30T02:33:26.351Z,8.44
2023-03-30T02:36:24.183Z,8.34
2023-03-30T02:39:01.264Z,8.26
2023-03-30T02:41:49.361Z,8.31
2023-03-30T02:44:37.225Z,8.29
2023-03-30T02:47:36.826Z,8.19
2023-03-30T02:50:14.774Z,8.27
2023-03-30T02:52:46.651Z,8.21
2023-03-30T02:55:20.578Z,8.29
2023-03-30T02:57:55.714Z,8.23
2023-03-30T03:00:28.299Z,8.19
2023-03-30T03:03:00.171Z,8.27
2023-03-30T03:05:27.488Z,8.21
2023-03-30T03:07:54.660Z,8.22
2023-03-30T03:10:21.031Z,8.23
2023-03-30T03:12:50.735Z,8.29
2023-03-30T03:15:17.063Z,8.22
2023-03-30T03:17:45.129Z,8.27
2023-03-30T03:20:11.651Z,8.22
2023-03-30T03:22:37.931Z,8.28
2023-03-30T03:25:05.720Z,8.28
2023-03-30T03:27:32.066Z,8.27
2023-03-30T03:29:58.754Z,8.27
2023-03-30T03:32:25.098Z,8.25
2023-03-30T03:34:51.397Z,8.25
2023-03-30T03:37:17.687Z,8.26
2023-03-30T03:39:44.087Z,8.28
2023-03-30T03:42:11.364Z,8.26
2023-03-30T03:44:38.110Z,8.21
2023-03-30T03:47:04.519Z,8.16
2023-03-30T03:49:31.082Z,8.17
2023-03-30T03:51:57.431Z,8.14
2023-03-30T03:54:23.802Z,8.13
2023-03-30T03:56:51.814Z,8.17
2023-03-30T03:59:18.190Z,8.13
2023-03-30T04:01:44.550Z,8.11
2023-03-30T04:04:10.873Z,8.05
2023-03-30T04:06:37.276Z,7.94
2023-03-30T04:09:03.653Z,7.94
2023-03-30T04:11:30.012Z,7.98
2023-03-30T04:13:56.545Z,7.96
2023-03-30T04:16:22.897Z,7.97
2023-03-30T04:18:49.284Z,7.94
2023-03-30T04:21:17.617Z,7.94
2023-03-30T04:23:49.994Z,7.92
2023-03-30T04:26:17.345Z,7.91
2023-03-30T04:28:43.676Z,7.98
2023-03-30T04:31:10.965Z,7.97
2023-03-30T04:33:41.164Z,7.92
2023-03-30T04:36:07.862Z,7.97
2023-03-30T04:38:37.178Z,7.95
2023-03-30T04:41:04.452Z,8.03
2023-03-30T04:43:31.274Z,8.01
2023-03-30T04:45:57.646Z,8.07
2023-03-30T04:48:24.263Z,8.00
2023-03-30T04:50:51.608Z,7.96
2023-03-30T04:53:18.999Z,8.03
2023-03-30T04:55:49.947Z,8.03
2023-03-30T04:58:17.035Z,7.98
2023-03-30T05:00:43.348Z,7.93
2023-03-30T05:03:10.092Z,7.96
2023-03-30T05:05:36.549Z,7.97
2023-03-30T05:08:02.965Z,8.01
2023-03-30T05:10:29.303Z,8.05
2023-03-30T05:12:56.499Z,8.01
2023-03-30T05:15:22.868Z,7.98
2023-03-30T05:17:49.461Z,8.06
2023-03-30T05:20:15.973Z,8.01
2023-03-30T05:22:42.382Z,8.06
2023-03-30T05:25:09.064Z,8.02
2023-03-30T05:27:35.749Z,8.05
2023-03-30T05:30:02.104Z,8.07
2023-03-30T05:32:28.689Z,8.15
2023-03-30T05:34:55.311Z,8.14
2023-03-30T05:37:21.729Z,8.17
2023-03-30T05:39:48.427Z,8.19
2023-03-30T05:42:14.777Z,8.25
2023-03-30T05:44:41.186Z,8.30
2023-03-30T05:47:07.807Z,8.26
2023-03-30T05:49:34.091Z,8.28
2023-03-30T05:52:01.043Z,8.35
2023-03-30T05:54:27.842Z,8.33
2023-03-30T05:56:54.316Z,8.38
2023-03-30T05:59:21.659Z,8.52
2023-03-30T06:01:48.172Z,8.56
2023-03-30T06:04:16.230Z,8.55
2023-03-30T06:06:43.133Z,8.56
2023-03-30T06:09:10.118Z,8.52
2023-03-30T06:11:36.476Z,8.60
2023-03-30T06:14:02.962Z,8.56
2023-03-30T06:16:29.388Z,8.57
2023-03-30T06:18:55.780Z,8.66
2023-03-30T06:21:22.187Z,8.67
2023-03-30T06:23:48.954Z,8.67
2023-03-30T06:26:15.600Z,8.64
2023-03-30T06:28:42.065Z,8.67
2023-03-30T06:31:10.607Z,8.70
2023-03-30T06:33:38.341Z,8.73
2023-03-30T06:36:11.421Z,8.75
2023-03-30T06:38:38.214Z,8.80
2023-03-30T06:41:08.103Z,8.85
2023-03-30T06:43:34.481Z,8.89
2023-03-30T06:46:00.887Z,8.96
2023-03-30T06:48:27.344Z,8.98
2023-03-30T06:50:54.566Z,8.99
2023-03-30T06:53:22.503Z,9.00
2023-03-30T06:55:53.596Z,9.13
2023-03-30T06:58:20.010Z,9.25
2023-03-30T07:00:46.584Z,9.35
2023-03-30T07:03:12.930Z,9.33
2023-03-30T07:05:39.280Z,9.35
2023-03-30T07:08:07.593Z,9.51
2023-03-30T07:10:34.009Z,9.51
2023-03-30T07:13:00.491Z,9.58
2023-03-30T07:15:27.232Z,9.70
2023-03-30T07:17:53.645Z,9.89
2023-03-30T07:20:20.410Z,9.99
2023-03-30T07:22:46.697Z,9.98
2023-03-30T07:25:13.606Z,10.00
2023-03-30T07:27:40.856Z,9.99
2023-03-30T07:30:20.592Z,10.04
2023-03-30T07:32:50.112Z,10.10
2023-03-30T07:35:16.808Z,10.10
2023-03-30T07:37:43.149Z,10.25
2023-03-30T07:40:09.952Z,10.32
2023-03-30T07:42:36.937Z,10.28
2023-03-30T07:45:04.905Z,10.35
2023-03-30T07:47:31.406Z,10.37
2023-03-30T07:49:57.818Z,10.48
2023-03-30T07:52:24.173Z,10.54
2023-03-30T07:54:50.546Z,10.59
2023-03-30T07:57:17.389Z,10.66
2023-03-30T07:59:43.804Z,10.71
2023-03-30T08:02:12.091Z,10.72
2023-03-30T08:04:38.518Z,10.66
2023-03-30T08:07:04.931Z,10.63
2023-03-30T08:09:31.367Z,10.71
2023-03-30T08:11:57.861Z,10.66
2023-03-30T08:14:26.381Z,10.67
2023-03-30T08:16:53.873Z,10.79
2023-03-30T08:19:21.246Z,10.76
2023-03-30T08:21:47.508Z,10.88
2023-03-30T08:24:13.871Z,10.89
2023-03-30T08:26:40.145Z,11.06
2023-03-30T08:29:07.069Z,11.16
2023-03-30T08:31:34.256Z,11.19
2023-03-30T08:34:00.617Z,11.30
2023-03-30T08:36:26.992Z,11.36
2023-03-30T08:38:54.782Z,11.33
2023-03-30T08:41:30.095Z,11.30
2023-03-30T08:44:40.250Z,11.39
2023-03-30T08:47:13.072Z,11.66
2023-03-30T08:49:46.589Z,11.68
2023-03-30T08:52:22.810Z,11.77
2023-03-30T08:54:51.943Z,11.76
2023-03-30T08:57:52.461Z,11.85
2023-03-30T09:00:32.598Z,11.78
2023-03-30T09:03:10.711Z,11.78
2023-03-30T09:05:44.033Z,11.81
2023-03-30T09:08:18.438Z,11.80
2023-03-30T09:10:49.829Z,11.91
2023-03-30T09:13:20.597Z,11.97
2023-03-30T09:15:54.720Z,11.98
2023-03-30T09:18:31.454Z,12.01
2023-03-30T09:21:03.479Z,12.19
2023-03-30T09:23:31.662Z,12.19
2023-03-30T09:26:02.689Z,12.28
2023-03-30T09:28:38.053Z,12.34
2023-03-30T09:31:14.293Z,12.39
2023-03-30T09:33:51.943Z,12.63
2023-03-30T09:36:27.542Z,12.68
2023-03-30T09:38:54.004Z,12.81
2023-03-30T09:41:56.773Z,13.00
2023-03-30T09:44:29.916Z,12.94
2023-03-30T09:46:58.959Z,12.88
2023-03-30T09:49:29.606Z,12.71
2023-03-30T09:52:02.438Z,12.84
2023-03-30T09:54:41.508Z,12.73
2023-03-30T09:57:26.940Z,12.67
2023-03-30T09:59:55.744Z,12.64
2023-03-30T10:02:25.124Z,12.56
2023-03-30T10:04:52.358Z,12.66
2023-03-30T10:07:26.400Z,12.81
2023-03-30T10:09:53.445Z,12.80
2023-03-30T10:12:20.691Z,12.77
2023-03-30T10:14:47.020Z,12.74
2023-03-30T10:17:22.044Z,12.88
2023-03-30T10:19:51.767Z,12.94
2023-03-30T10:22:25.705Z,13.11
2023-03-30T10:24:55.050Z,13.33
2023-03-30T10:27:30.142Z,13.54
2023-03-30T10:29:56.476Z,13.51
2023-03-30T10:32:31.476Z,13.65
2023-03-30T10:35:01.859Z,13.92
2023-03-30T10:37:36.911Z,13.84
2023-03-30T10:40:15.451Z,13.71
2023-03-30T10:42:42.330Z,13.67
2023-03-30T10:45:19.011Z,13.53
2023-03-30T10:47:45.459Z,13.49
2023-03-30T10:50:18.244Z,13.48
2023-03-30T10:52:59.335Z,13.46
2023-03-30T10:55:41.593Z,13.49
2023-03-30T10:58:34.139Z,13.50
2023-03-30T11:01:11.570Z,13.63
2023-03-30T11:03:40.147Z,13.62
2023-03-30T11:06:14.444Z,13.74
2023-03-30T11:08:50.738Z,13.71
2023-03-30T11:11:21.809Z,13.58
2023-03-30T11:13:54.213Z,13.58
2023-03-30T11:16:31.070Z,13.59
2023-03-30T11:19:03.249Z,13.47
2023-03-30T11:21:56.978Z,13.38
2023-03-30T11:24:24.443Z,13.32
2023-03-30T11:27:03.639Z,13.34
2023-03-30T11:29:45.530Z,13.38
2023-03-30T11:32:37.084Z,13.47
2023-03-30T11:35:07.002Z,13.57
2023-03-30T11:37:45.780Z,13.64
2023-03-30T11:40:18.476Z,13.98
2023-03-30T11:42:47.094Z,13.97
2023-03-30T11:45:38.084Z,13.99
2023-03-30T11:48:10.309Z,14.03
2023-03-30T11:51:09.588Z,13.99
2023-03-30T11:53:55.472Z,14.08
2023-03-30T11:56:50.979Z,14.31
2023-03-30T11:59:31.313Z,14.59
2023-03-30T12:02:16.311Z,14.86
2023-03-30T12:04:49.769Z,15.26
2023-03-30T12:07:49.962Z,15.03
2023-03-30T12:10:52.803Z,14.88
2023-03-30T12:13:19.779Z,14.63
2023-03-30T12:16:11.395Z,14.33
2023-03-30T12:18:44.156Z,14.22
2023-03-30T12:21:19.210Z,13.86
2023-03-30T12:24:15.621Z,13.56
2023-03-30T12:26:46.932Z,12.83
2023-03-30T12:31:55.871Z,11.31
2023-03-30T12:34:44.928Z,11.00
2023-03-30T12:37:18.140Z,11.02
2023-03-30T12:39:59.685Z,10.90
2023-03-30T12:42:35.011Z,10.99
2023-03-30T12:45:21.782Z,10.87
2023-03-30T12:48:06.276Z,10.83
2023-03-30T12:50:45.707Z,10.79
2023-03-30T12:53:26.069Z,10.87
2023-03-30T12:56:06.977Z,11.07
2023-03-30T12:59:04.145Z,11.24
2023-03-30T13:01:49.160Z,11.38
2023-03-30T13:04:21.147Z,11.46
2023-03-30T13:07:02.483Z,11.67
2023-03-30T13:09:33.282Z,11.77
2023-03-30T13:11:59.506Z,11.90
2023-03-30T13:14:26.986Z,11.94
2023-03-30T13:16:53.506Z,12.12
2023-03-30T13:19:37.094Z,12.28
2023-03-30T13:22:15.613Z,12.48
2023-03-30T13:24:41.991Z,12.38
2023-03-30T13:27:14.199Z,12.36
2023-03-30T13:29:42.147Z,12.30
2023-03-30T13:32:38.965Z,12.45
2023-03-30T13:35:29.180Z,12.51
2023-03-30T13:38:24.837Z,12.40
2023-03-30T13:41:07.516Z,12.27
2023-03-30T13:43:49.434Z,12.29
2023-03-30T13:46:18.911Z,12.39
2023-03-30T13:49:14.467Z,12.38
2023-03-30T13:51:42.399Z,12.44
2023-03-30T13:54:28.639Z,12.68
2023-03-30T13:57:06.418Z,12.93
2023-03-30T13:59:35.768Z,12.94
2023-03-30T14:02:03.591Z,12.95
2023-03-30T14:04:32.500Z,12.89
2023-03-30T14:07:05.450Z,12.87
2023-03-30T14:09:31.845Z,12.90
2023-03-30T14:12:00.753Z,12.86
2023-03-30T14:14:39.055Z,12.83
2023-03-30T14:17:26.773Z,12.77
2023-03-30T14:20:07.407Z,12.79
2023-03-30T14:22:39.807Z,12.84
2023-03-30T14:25:21.440Z,12.78
2023-03-30T14:27:47.722Z,12.80
2023-03-30T14:30:32.269Z,12.81
2023-03-30T14:33:10.111Z,12.84
2023-03-30T14:35:41.801Z,12.82
2023-03-30T14:38:21.970Z,12.73
2023-03-30T14:40:49.913Z,12.78
2023-03-30T14:43:24.408Z,12.76
2023-03-30T14:45:56.504Z,12.73
2023-03-30T14:48:31.447Z,12.70
2023-03-30T14:51:07.653Z,12.76
2023-03-30T14:53:34.874Z,12.89
2023-03-30T14:56:03.499Z,13.02
2023-03-30T14:58:31.899Z,13.02
2023-03-30T15:01:09.237Z,12.93
2023-03-30T15:03:37.595Z,12.93
2023-03-30T15:06:06.724Z,12.88
2023-03-30T15:08:39.148Z,12.89
2023-03-30T15:11:12.281Z,12.90
2023-03-30T15:13:47.091Z,13.12
2023-03-30T15:16:19.731Z,13.07
2023-03-30T15:19:02.355Z,12.96
2023-03-30T15:21:30.845Z,12.80
2023-03-30T15:23:58.497Z,12.83
2023-03-30T15:26:26.924Z,12.81
2023-03-30T15:28:56.927Z,12.77
2023-03-30T15:31:25.917Z,12.75
2023-03-30T15:33:54.638Z,12.65
2023-03-30T15:36:26.264Z,12.44
2023-03-30T15:38:55.154Z,12.04
2023-03-30T15:41:24.058Z,11.21
2023-03-30T15:44:14.931Z,10.99
2023-03-30T15:46:41.430Z,10.92
2023-03-30T15:49:13.244Z,10.92
2023-03-30T15:51:43.943Z,10.91
2023-03-30T15:54:15.006Z,10.66
2023-03-30T15:57:08.275Z,10.65
2023-03-30T15:59:41.581Z,10.73
2023-03-30T16:02:24.260Z,10.71
2023-03-30T16:04:51.380Z,10.93
2023-03-30T16:08:48.592Z,11.12
2023-03-30T16:11:16.800Z,11.20
2023-03-30T16:13:48.884Z,10.93
2023-03-30T16:16:18.326Z,10.90
2023-03-30T16:18:44.934Z,10.90
2023-03-30T16:21:12.212Z,10.93
2023-03-30T16:23:38.824Z,10.98
2023-03-30T16:26:07.965Z,10.89
2023-03-30T16:28:34.285Z,10.76
2023-03-30T16:31:06.124Z,10.70
2023-03-30T16:33:32.704Z,10.74
2023-03-30T16:35:59.067Z,10.75
2023-03-30T16:38:25.464Z,10.72
2023-03-30T16:40:55.821Z,10.80
2023-03-30T16:43:22.157Z,10.77
2023-03-30T16:45:51.113Z,10.77
2023-03-30T16:48:17.454Z,10.86
2023-03-30T16:50:54.672Z,10.94
2023-03-30T16:53:20.958Z,10.90
2023-03-30T16:55:47.540Z,10.89
2023-03-30T16:58:14.955Z,10.94
2023-03-30T17:00:47.587Z,10.91
2023-03-30T17:03:14.582Z,10.90
2023-03-30T17:05:41.977Z,10.82
2023-03-30T17:08:21.030Z,10.75
2023-03-30T17:10:48.054Z,10.79
2023-03-30T17:13:14.600Z,10.80
2023-03-30T17:15:41.125Z,10.77
2023-03-30T17:18:17.713Z,10.80
2023-03-30T17:20:50.949Z,10.81
2023-03-30T17:23:18.456Z,10.83
2023-03-30T17:25:47.498Z,10.89
2023-03-30T17:28:30.064Z,10.86
2023-03-30T17:31:02.681Z,10.78
2023-03-30T17:33:30.453Z,10.76
2023-03-30T17:36:02.627Z,10.68
2023-03-30T17:38:29.729Z,10.65
2023-03-30T17:40:56.345Z,10.62
2023-03-30T17:43:23.126Z,10.71
2023-03-30T17:45:49.760Z,10.69
2023-03-30T17:48:18.747Z,10.70
2023-03-30T17:50:47.685Z,10.80
2023-03-30T17:53:16.625Z,10.82
2023-03-30T17:55:48.976Z,10.80
2023-03-30T17:58:34.107Z,10.79
2023-03-30T18:01:03.433Z,10.78
2023-03-30T18:03:30.337Z,10.57
2023-03-30T18:05:58.155Z,10.47
2023-03-30T18:08:25.586Z,10.36
2023-03-30T18:10:54.143Z,10.34
2023-03-30T18:13:21.847Z,10.19
2023-03-30T18:15:49.975Z,10.18
2023-03-30T18:18:22.725Z,10.19
2023-03-30T18:20:51.424Z,10.14
2023-03-30T18:23:18.653Z,10.17
2023-03-30T18:25:45.481Z,10.14
2023-03-30T18:28:26.132Z,10.13
2023-03-30T18:30:55.146Z,10.16
2023-03-30T18:33:22.234Z,10.17
2023-03-30T18:35:51.204Z,10.15
2023-03-30T18:38:20.151Z,10.11
2023-03-30T18:40:58.567Z,10.06
2023-03-30T18:43:26.268Z,10.07
2023-03-30T18:45:52.780Z,10.05
2023-03-30T18:48:21.190Z,10.00
2023-03-30T18:50:50.650Z,10.04
2023-03-30T18:53:22.208Z,10.09
2023-03-30T18:55:56.882Z,10.09
2023-03-30T18:58:27.019Z,10.02
2023-03-30T19:00:54.871Z,9.98
2023-03-30T19:03:22.860Z,9.92
2023-03-30T19:05:50.446Z,9.89
2023-03-30T19:08:22.530Z,9.84
2023-03-30T19:10:51.391Z,9.82
2023-03-30T19:13:19.841Z,9.85
2023-03-30T19:15:47.656Z,9.85
2023-03-30T19:18:14.970Z,9.81
2023-03-30T19:20:43.373Z,9.80
2023-03-30T19:23:15.572Z,9.79
2023-03-30T19:25:43.223Z,9.78
2023-03-30T19:28:37.509Z,9.79
2023-03-30T19:31:13.168Z,9.82
2023-03-30T19:33:40.390Z,9.79
2023-03-30T19:36:08.384Z,9.75
2023-03-30T19:38:35.233Z,9.75
2023-03-30T19:41:04.018Z,9.80
2023-03-30T19:43:30.739Z,9.79
2023-03-30T19:45:57.075Z,9.78
2023-03-30T19:48:23.391Z,9.74
2023-03-30T19:50:50.567Z,9.71
2023-03-30T19:53:17.313Z,9.70
2023-03-30T19:55:45.924Z,9.72
2023-03-30T19:58:12.866Z,9.76
2023-03-30T20:00:43.623Z,9.67
2023-03-30T20:03:12.165Z,9.66
2023-03-30T20:05:39.223Z,9.71
2023-03-30T20:08:13.699Z,9.69
2023-03-30T20:10:49.467Z,9.69
2023-03-30T20:13:16.902Z,9.74
2023-03-30T20:15:45.233Z,9.66
2023-03-30T20:18:11.688Z,9.68
2023-03-30T20:20:38.306Z,9.64
2023-03-30T20:23:04.574Z,9.69
2023-03-30T20:25:30.929Z,9.72
2023-03-30T20:27:57.323Z,9.78
2023-03-30T20:30:23.663Z,9.79
2023-03-30T20:33:06.856Z,9.78
2023-03-30T20:35:38.023Z,9.81
2023-03-30T20:38:08.566Z,9.75
2023-03-30T20:40:35.098Z,9.79
2023-03-30T20:43:10.520Z,9.71
2023-03-30T20:45:46.002Z,9.75
2023-03-30T20:48:28.746Z,9.75
2023-03-30T20:50:58.026Z,9.72
2023-03-30T20:53:25.760Z,9.70
2023-03-30T20:55:52.190Z,9.66
2023-03-30T20:58:18.535Z,9.64
2023-03-30T21:00:44.839Z,9.64
2023-03-30T21:03:13.918Z,9.64
2023-03-30T21:05:40.527Z,9.62
2023-03-30T21:08:09.773Z,9.55
2023-03-30T21:10:36.289Z,9.52
2023-03-30T21:13:03.380Z,9.51
2023-03-30T21:15:30.124Z,9.53
2023-03-30T21:17:56.555Z,9.48
2023-03-30T21:20:22.926Z,9.53
2023-03-30T21:22:50.753Z,9.53
2023-03-30T21:25:17.711Z,9.55
2023-03-30T21:27:44.941Z,9.55
2023-03-30T21:30:13.307Z,9.61
2023-03-30T21:32:39.814Z,9.60
2023-03-30T21:35:06.621Z,9.56
2023-03-30T21:37:32.956Z,9.55
2023-03-30T21:39:59.302Z,9.55
2023-03-30T21:42:25.607Z,9.55
2023-03-30T21:44:51.954Z,9.52
2023-03-30T21:47:18.383Z,9.51
2023-03-30T21:49:44.641Z,9.47
2023-03-30T21:52:10.946Z,9.46
2023-03-30T21:54:37.273Z,9.50
2023-03-30T21:57:04.495Z,9.45
2023-03-30T21:59:30.914Z,9.49
2023-03-30T22:01:57.353Z,9.49
2023-03-30T22:04:23.648Z,9.45
2023-03-30T22:06:49.926Z,9.42
2023-03-30T22:09:16.363Z,9.41
2023-03-30T22:11:43.137Z,9.49
2023-03-30T22:14:09.511Z,9.42
2023-03-30T22:16:36.814Z,9.47
2023-03-30T22:19:04.332Z,9.43
2023-03-30T22:21:39.571Z,9.46
2023-03-30T22:24:07.465Z,9.44
2023-03-30T22:26:34.679Z,9.48
2023-03-30T22:29:01.057Z,9.53
2023-03-30T22:31:28.248Z,9.45
2023-03-30T22:33:56.179Z,9.41
2023-03-30T22:36:30.952Z,9.40
2023-03-30T22:38:58.700Z,9.45
2023-03-30T22:41:26.763Z,9.43
2023-03-30T22:43:55.966Z,9.34
2023-03-30T22:46:23.639Z,9.38
2023-03-30T22:48:51.479Z,9.41
2023-03-30T22:51:27.555Z,9.40
2023-03-30T22:53:59.079Z,9.41
2023-03-30T22:56:27.106Z,9.45
2023-03-30T22:58:53.432Z,9.40
2023-03-30T23:01:21.418Z,9.37
2023-03-30T23:03:47.895Z,9.32
2023-03-30T23:06:14.559Z,9.36
2023-03-30T23:08:41.050Z,9.38
2023-03-30T23:11:08.185Z,9.41
2023-03-30T23:13:38.223Z,9.34
2023-03-30T23:16:06.295Z,9.36
2023-03-30T23:18:33.777Z,9.39
2023-03-30T23:21:05.781Z,9.39
2023-03-30T23:23:33.311Z,9.38
2023-03-30T23:26:02.677Z,9.38
2023-03-30T23:28:31.357Z,9.36
2023-03-30T23:30:57.761Z,9.42
2023-03-30T23:33:24.702Z,9.46
2023-03-30T23:35:51.194Z,9.49
2023-03-30T23:38:17.693Z,9.45
2023-03-30T23:40:44.048Z,9.43
2023-03-30T23:43:10.989Z,9.47
2023-03-30T23:45:37.279Z,9.41
2023-03-30T23:48:03.733Z,9.30
2023-03-30T23:50:32.904Z,9.20
2023-03-30T23:52:59.252Z,9.18
2023-03-30T23:55:25.652Z,9.15
2023-03-30T23:57:52.003Z,9.13
